createdAt,value
2018-05-07T00:01:38.066Z,48.46
2018-05-07T00:04:05.662Z,48.76
2018-05-07T00:06:33.253Z,49.14
2018-05-07T00:09:00.965Z,49.15
2018-05-07T00:11:28.553Z,49.32
2018-05-07T00:13:56.166Z,49.56
2018-05-07T00:16:23.756Z,49.57
2018-05-07T00:18:51.382Z,49.71
2018-05-07T00:21:18.972Z,49.92
2018-05-07T00:23:46.562Z,50.40
2018-05-07T00:26:16.905Z,50.06
2018-05-07T00:28:44.527Z,50.17
2018-05-07T00:31:12.152Z,50.19
2018-05-07T00:33:39.813Z,50.09
2018-05-07T00:36:07.422Z,50.26
2018-05-07T00:38:35.012Z,50.90
2018-05-07T00:41:02.598Z,50.41
2018-05-07T00:43:30.202Z,50.37
2018-05-07T00:45:57.818Z,50.50
2018-05-07T00:48:25.423Z,50.67
2018-05-07T00:50:53.015Z,50.92
2018-05-07T00:53:20.881Z,50.52
2018-05-07T00:55:48.472Z,50.83
2018-05-07T00:58:16.065Z,50.75
2018-05-07T01:00:43.727Z,50.97
2018-05-07T01:03:11.391Z,50.99
2018-05-07T01:05:39.004Z,51.04
2018-05-07T01:08:06.662Z,51.03
2018-05-07T01:10:34.619Z,51.13
2018-05-07T01:13:02.206Z,50.98
2018-05-07T01:15:29.810Z,51.17
2018-05-07T01:17:57.415Z,51.31
2018-05-07T01:20:25.002Z,51.29
2018-05-07T01:22:52.611Z,51.34
2018-05-07T01:25:20.259Z,51.40
2018-05-07T01:27:47.840Z,51.77
2018-05-07T01:30:15.528Z,51.69
2018-05-07T01:32:43.148Z,52.36
2018-05-07T01:35:10.742Z,52.35
2018-05-07T01:37:38.323Z,52.37
2018-05-07T01:40:05.966Z,52.38
2018-05-07T01:42:34.292Z,52.61
2018-05-07T01:45:02.107Z,52.70
2018-05-07T01:47:29.698Z,52.71
2018-05-07T01:49:57.291Z,52.89
2018-05-07T01:52:24.904Z,53.07
2018-05-07T01:54:52.504Z,52.85
2018-05-07T01:57:20.318Z,53.16
2018-05-07T01:59:47.918Z,53.33
2018-05-07T02:02:15.511Z,53.11
2018-05-07T02:04:43.121Z,53.00
2018-05-07T02:07:10.719Z,53.23
2018-05-07T02:09:38.343Z,53.54
2018-05-07T02:12:05.941Z,53.34
2018-05-07T02:14:33.599Z,53.54
2018-05-07T02:17:01.185Z,53.76
2018-05-07T02:19:28.775Z,53.60
2018-05-07T02:21:56.386Z,53.60
2018-05-07T02:24:23.970Z,53.81
2018-05-07T02:26:51.583Z,53.76
2018-05-07T02:29:19.171Z,54.00
2018-05-07T02:31:47.106Z,53.99
2018-05-07T02:34:15.203Z,54.25
2018-05-07T02:36:42.799Z,54.23
2018-05-07T02:39:10.422Z,54.62
2018-05-07T02:41:38.013Z,54.77
2018-05-07T02:44:05.631Z,55.03
2018-05-07T02:46:33.225Z,55.26
2018-05-07T02:49:01.029Z,55.13
2018-05-07T02:51:28.623Z,55.17
2018-05-07T02:53:56.216Z,55.39
2018-05-07T02:56:23.825Z,55.57
2018-05-07T02:58:51.424Z,55.54
2018-05-07T03:01:19.049Z,55.60
2018-05-07T03:03:46.653Z,56.40
2018-05-07T03:06:14.285Z,56.16
2018-05-07T03:08:41.905Z,56.07
2018-05-07T03:11:09.505Z,56.27
2018-05-07T03:13:37.123Z,56.36
2018-05-07T03:16:04.710Z,56.33
2018-05-07T03:18:32.326Z,56.18
2018-05-07T03:20:59.920Z,56.55
2018-05-07T03:23:27.769Z,56.32
2018-05-07T03:25:55.319Z,56.18
2018-05-07T03:28:22.994Z,56.29
2018-05-07T03:30:50.608Z,56.35
2018-05-07T03:33:18.202Z,56.18
2018-05-07T03:35:45.830Z,56.54
2018-05-07T03:38:13.430Z,56.26
2018-05-07T03:40:41.057Z,56.11
2018-05-07T03:43:08.654Z,56.19
2018-05-07T03:45:36.243Z,56.46
2018-05-07T03:48:03.863Z,56.32
2018-05-07T03:50:31.458Z,56.36
2018-05-07T03:52:59.114Z,56.29
2018-05-07T03:55:26.718Z,56.50
2018-05-07T03:57:54.726Z,56.71
2018-05-07T04:00:22.317Z,57.03
2018-05-07T04:02:49.903Z,57.38
2018-05-07T04:05:19.346Z,56.75
2018-05-07T04:07:46.930Z,56.79
2018-05-07T04:10:14.548Z,56.98
2018-05-07T04:12:42.140Z,57.22
2018-05-07T04:15:09.768Z,57.52
2018-05-07T04:17:49.075Z,57.13
2018-05-07T04:20:28.571Z,56.88
2018-05-07T04:23:07.961Z,57.08
2018-05-07T04:25:36.170Z,56.97
2018-05-07T04:28:03.700Z,56.89
2018-05-07T04:30:31.291Z,57.21
2018-05-07T04:32:58.916Z,56.89
2018-05-07T04:35:26.509Z,56.94
2018-05-07T04:37:54.142Z,56.97
2018-05-07T04:40:21.797Z,56.81
2018-05-07T04:42:49.763Z,56.88
2018-05-07T04:45:17.350Z,56.58
2018-05-07T04:47:44.946Z,56.79
2018-05-07T04:50:12.558Z,56.45
2018-05-07T04:52:40.154Z,56.77
2018-05-07T04:55:08.423Z,56.20
2018-05-07T04:57:36.007Z,56.18
2018-05-07T05:00:03.814Z,56.16
2018-05-07T05:02:31.411Z,56.57
2018-05-07T05:04:59.008Z,56.90
2018-05-07T05:07:26.631Z,56.04
2018-05-07T05:09:54.235Z,56.30
2018-05-07T05:12:21.852Z,55.89
2018-05-07T05:14:49.477Z,55.94
2018-05-07T05:17:17.249Z,55.40
2018-05-07T05:19:44.833Z,55.27
2018-05-07T05:22:12.431Z,55.25
2018-05-07T05:24:40.047Z,55.24
2018-05-07T05:27:07.643Z,55.23
2018-05-07T05:29:35.491Z,54.89
2018-05-07T05:32:03.074Z,54.93
2018-05-07T05:34:30.891Z,55.16
2018-05-07T05:36:58.481Z,54.16
2018-05-07T05:39:26.158Z,54.17
2018-05-07T05:41:53.778Z,53.68
2018-05-07T05:44:21.377Z,54.01
2018-05-07T05:46:48.991Z,53.50
2018-05-07T05:49:16.575Z,53.40
2018-05-07T05:51:44.239Z,53.11
2018-05-07T05:54:11.849Z,52.93
2018-05-07T05:56:39.438Z,52.99
2018-05-07T05:59:07.058Z,52.70
2018-05-07T06:01:34.648Z,52.82
2018-05-07T06:04:02.297Z,52.65
2018-05-07T06:06:29.903Z,51.81
2018-05-07T06:08:57.904Z,51.90
2018-05-07T06:11:25.515Z,51.98
2018-05-07T06:13:53.108Z,51.89
2018-05-07T06:16:20.722Z,52.05
2018-05-07T06:18:48.506Z,51.65
2018-05-07T06:21:16.259Z,51.49
2018-05-07T06:23:43.843Z,51.19
2018-05-07T06:26:11.787Z,50.94
2018-05-07T06:28:39.521Z,50.39
2018-05-07T06:31:07.122Z,50.37
2018-05-07T06:33:34.774Z,50.41
2018-05-07T06:36:03.191Z,49.81
2018-05-07T06:38:30.830Z,49.34
2018-05-07T06:40:58.447Z,49.40
2018-05-07T06:43:26.265Z,48.71
2018-05-07T06:45:53.888Z,48.99
2018-05-07T06:48:21.476Z,49.07
2018-05-07T06:50:49.087Z,49.34
2018-05-07T06:53:16.963Z,48.92
2018-05-07T06:55:44.575Z,48.75
2018-05-07T06:58:12.177Z,48.18
2018-05-07T07:00:39.824Z,49.05
2018-05-07T07:03:07.410Z,48.14
2018-05-07T07:05:34.997Z,47.99
2018-05-07T07:08:02.695Z,48.72
2018-05-07T07:10:30.246Z,47.92
2018-05-07T07:12:57.872Z,47.58
2018-05-07T07:15:25.464Z,47.31
2018-05-07T07:17:53.062Z,47.09
2018-05-07T07:20:20.671Z,47.06
2018-05-07T07:22:48.272Z,47.04
2018-05-07T07:25:16.198Z,46.46
2018-05-07T07:27:43.787Z,46.55
2018-05-07T07:30:11.388Z,46.68
2018-05-07T07:32:39.010Z,46.82
2018-05-07T07:35:06.613Z,46.60
2018-05-07T07:37:34.230Z,45.71
2018-05-07T07:40:01.843Z,45.27
2018-05-07T07:42:29.635Z,45.19
2018-05-07T07:44:57.238Z,44.61
2018-05-07T07:47:24.884Z,45.51
2018-05-07T07:49:52.498Z,44.72
2018-05-07T07:52:20.098Z,44.07
2018-05-07T07:54:47.705Z,43.54
2018-05-07T07:57:15.298Z,43.74
2018-05-07T07:59:42.914Z,43.43
2018-05-07T08:02:10.499Z,43.54
2018-05-07T08:04:38.129Z,43.53
2018-05-07T08:07:05.759Z,44.13
2018-05-07T08:09:33.345Z,43.33
2018-05-07T08:12:00.990Z,43.03
2018-05-07T08:14:28.561Z,41.78
2018-05-07T08:16:56.198Z,41.80
2018-05-07T08:19:23.838Z,42.50
2018-05-07T08:21:51.436Z,41.71
2018-05-07T08:24:19.086Z,41.98
2018-05-07T08:26:46.979Z,41.86
2018-05-07T08:29:14.581Z,41.46
2018-05-07T08:31:42.162Z,40.84
2018-05-07T08:34:09.841Z,41.24
2018-05-07T08:36:37.447Z,41.23
2018-05-07T08:39:05.949Z,40.97
2018-05-07T08:41:33.900Z,40.58
2018-05-07T08:44:01.502Z,40.13
2018-05-07T08:46:29.113Z,40.60
2018-05-07T08:48:56.858Z,40.28
2018-05-07T08:51:24.446Z,41.52
2018-05-07T08:53:52.120Z,40.46
2018-05-07T08:56:19.702Z,40.37
2018-05-07T08:58:47.582Z,41.39
2018-05-07T09:01:15.167Z,40.34
2018-05-07T09:03:42.804Z,39.70
2018-05-07T09:06:10.422Z,40.66
2018-05-07T09:08:38.070Z,39.73
2018-05-07T09:11:05.670Z,38.78
2018-05-07T09:13:33.262Z,39.61
2018-05-07T09:16:01.136Z,37.92
2018-05-07T09:18:28.722Z,37.87
2018-05-07T09:20:56.310Z,36.77
2018-05-07T09:23:23.930Z,37.64
2018-05-07T09:25:51.516Z,36.95
2018-05-07T09:28:19.133Z,36.38
2018-05-07T09:30:46.717Z,36.82
2018-05-07T09:33:14.328Z,36.72
2018-05-07T09:35:41.910Z,37.20
2018-05-07T09:38:09.513Z,36.68
2018-05-07T09:40:37.119Z,36.26
2018-05-07T09:43:04.759Z,35.23
2018-05-07T09:45:32.471Z,34.70
2018-05-07T09:48:00.112Z,35.04
2018-05-07T09:50:27.901Z,35.76
2018-05-07T09:52:55.759Z,35.13
2018-05-07T09:55:23.351Z,35.04
2018-05-07T09:58:02.713Z,35.48
2018-05-07T10:00:36.029Z,36.41
2018-05-07T10:03:03.652Z,35.32
2018-05-07T10:05:31.250Z,35.16
2018-05-07T10:07:59.150Z,36.40
2018-05-07T10:10:29.589Z,36.60
2018-05-07T10:12:57.211Z,37.95
2018-05-07T10:15:24.830Z,36.81
2018-05-07T10:17:52.425Z,37.35
2018-05-07T10:20:20.104Z,36.98
2018-05-07T10:22:47.696Z,38.03
2018-05-07T10:25:15.647Z,39.74
2018-05-07T10:27:43.235Z,38.34
2018-05-07T10:30:10.816Z,36.15
2018-05-07T10:32:38.426Z,36.89
2018-05-07T10:35:06.450Z,36.35
2018-05-07T10:37:34.055Z,37.21
2018-05-07T10:40:01.755Z,36.56
2018-05-07T10:42:29.548Z,37.03
2018-05-07T10:44:57.149Z,37.50
2018-05-07T10:47:24.828Z,37.70
2018-05-07T10:49:52.458Z,37.04
2018-05-07T10:52:20.049Z,37.86
2018-05-07T10:54:47.671Z,36.51
2018-05-07T10:57:15.263Z,36.97
2018-05-07T10:59:42.986Z,36.44
2018-05-07T11:02:10.594Z,35.58
2018-05-07T11:04:38.182Z,35.63
2018-05-07T11:07:05.799Z,36.40
2018-05-07T11:09:33.393Z,34.95
2018-05-07T11:12:01.024Z,35.15
2018-05-07T11:14:28.823Z,35.18
2018-05-07T11:16:56.482Z,34.44
2018-05-07T11:19:24.079Z,34.92
2018-05-07T11:21:51.700Z,36.13
2018-05-07T11:24:19.340Z,34.47
2018-05-07T11:26:47.020Z,34.14
2018-05-07T11:29:14.626Z,33.25
2018-05-07T11:31:42.273Z,34.61
2018-05-07T11:34:09.890Z,33.50
2018-05-07T11:36:37.580Z,34.69
2018-05-07T11:39:06.063Z,35.04
2018-05-07T11:41:33.666Z,33.27
2018-05-07T11:44:01.481Z,34.47
2018-05-07T11:46:29.101Z,34.32
2018-05-07T11:48:56.750Z,32.26
2018-05-07T11:51:24.403Z,32.63
2018-05-07T11:53:52.046Z,31.80
2018-05-07T11:56:19.638Z,31.60
2018-05-07T11:58:47.429Z,31.71
2018-05-07T12:01:15.225Z,31.93
2018-05-07T12:03:42.869Z,31.35
2018-05-07T12:06:10.531Z,29.93
2018-05-07T12:08:38.142Z,30.41
2018-05-07T12:11:06.086Z,30.25
2018-05-07T12:13:33.697Z,29.57
2018-05-07T12:16:01.342Z,29.65
2018-05-07T12:18:29.058Z,30.28
2018-05-07T12:20:56.699Z,29.01
2018-05-07T12:23:24.322Z,29.43
2018-05-07T12:25:52.075Z,30.45
2018-05-07T12:28:19.707Z,31.22
2018-05-07T12:30:47.303Z,30.03
2018-05-07T12:33:14.916Z,29.74
2018-05-07T12:35:42.597Z,29.53
2018-05-07T12:38:10.265Z,29.60
2018-05-07T12:40:37.868Z,29.53
2018-05-07T12:43:05.496Z,28.61
2018-05-07T12:45:33.105Z,28.96
2018-05-07T12:48:00.707Z,31.17
2018-05-07T12:50:28.322Z,28.59
2018-05-07T12:52:55.948Z,27.98
2018-05-07T12:55:23.556Z,27.78
2018-05-07T12:57:51.178Z,27.30
2018-05-07T13:00:18.807Z,26.04
2018-05-07T13:02:46.404Z,24.99
2018-05-07T13:05:14.030Z,24.11
2018-05-07T13:07:41.643Z,23.33
2018-05-07T13:10:09.269Z,24.19
2018-05-07T13:12:36.989Z,21.28
2018-05-07T13:15:04.893Z,20.83
2018-05-07T13:17:32.500Z,21.53
2018-05-07T13:20:00.092Z,20.53
2018-05-07T13:22:27.712Z,20.98
2018-05-07T13:24:55.402Z,21.92
2018-05-07T13:27:22.998Z,22.00
2018-05-07T13:29:50.590Z,21.76
2018-05-07T13:32:18.212Z,20.27
2018-05-07T13:34:45.803Z,20.50
2018-05-07T13:37:13.424Z,19.80
2018-05-07T13:39:41.022Z,20.20
2018-05-07T13:42:08.630Z,19.65
2018-05-07T13:44:36.216Z,18.55
2018-05-07T13:47:03.835Z,19.29
2018-05-07T13:49:31.423Z,20.04
2018-05-07T13:51:59.057Z,18.88
2018-05-07T13:54:26.752Z,18.68
2018-05-07T13:56:54.432Z,19.83
2018-05-07T13:59:22.004Z,21.27
2018-05-07T14:01:49.686Z,20.83
2018-05-07T14:04:17.341Z,21.33
2018-05-07T14:06:44.937Z,23.33
2018-05-07T14:09:12.548Z,23.95
2018-05-07T14:11:40.135Z,24.66
2018-05-07T14:14:07.991Z,24.64
2018-05-07T14:16:35.578Z,25.19
2018-05-07T14:19:03.195Z,25.48
2018-05-07T14:21:30.866Z,26.01
2018-05-07T14:23:58.462Z,26.17
2018-05-07T14:26:26.085Z,26.76
2018-05-07T14:28:53.679Z,26.52
2018-05-07T14:31:21.303Z,27.71
2018-05-07T14:33:48.888Z,27.22
2018-05-07T14:36:16.516Z,27.58
2018-05-07T14:38:44.135Z,27.86
2018-05-07T14:41:11.770Z,27.61
2018-05-07T14:43:39.487Z,27.27
2018-05-07T14:46:07.128Z,27.69
2018-05-07T14:48:34.744Z,27.34
2018-05-07T14:51:02.361Z,27.81
2018-05-07T14:53:29.964Z,27.76
2018-05-07T14:55:57.591Z,27.91
2018-05-07T14:58:25.183Z,27.21
2018-05-07T15:00:52.785Z,27.82
2018-05-07T15:03:20.370Z,27.16
2018-05-07T15:05:47.975Z,27.11
2018-05-07T15:08:15.569Z,27.38
2018-05-07T15:10:43.186Z,26.87
2018-05-07T15:13:10.798Z,26.76
2018-05-07T15:15:38.738Z,26.76
2018-05-07T15:18:06.332Z,27.74
2018-05-07T15:20:33.943Z,27.50
2018-05-07T15:23:01.535Z,27.06
2018-05-07T15:25:29.166Z,27.10
2018-05-07T15:27:56.768Z,26.75
2018-05-07T15:30:24.377Z,26.57
2018-05-07T15:32:52.100Z,26.87
2018-05-07T15:35:19.694Z,26.60
2018-05-07T15:37:47.311Z,26.04
2018-05-07T15:40:14.903Z,27.23
2018-05-07T15:42:42.507Z,27.27
2018-05-07T15:45:10.093Z,26.58
2018-05-07T15:47:38.138Z,26.51
2018-05-07T15:50:05.721Z,26.84
2018-05-07T15:52:33.306Z,27.46
2018-05-07T15:55:00.927Z,26.49
2018-05-07T15:57:28.518Z,26.54
2018-05-07T15:59:56.132Z,26.56
2018-05-07T16:02:23.726Z,26.62
2018-05-07T16:04:51.370Z,26.92
2018-05-07T16:07:18.976Z,26.35
2018-05-07T16:09:46.583Z,26.29
2018-05-07T16:12:14.229Z,26.55
2018-05-07T16:14:41.817Z,26.22
2018-05-07T16:17:09.436Z,25.99
2018-05-07T16:19:37.046Z,26.02
2018-05-07T16:22:04.751Z,25.47
2018-05-07T16:24:32.274Z,26.13
2018-05-07T16:26:59.913Z,25.84
2018-05-07T16:29:27.531Z,25.86
2018-05-07T16:31:55.244Z,25.69
2018-05-07T16:34:22.830Z,25.42
2018-05-07T16:36:50.443Z,25.67
2018-05-07T16:39:18.104Z,25.58
2018-05-07T16:41:45.701Z,25.51
2018-05-07T16:44:13.317Z,25.75
2018-05-07T16:46:40.912Z,26.25
2018-05-07T16:49:08.721Z,25.72
2018-05-07T16:51:36.304Z,25.44
2018-05-07T16:54:03.915Z,25.08
2018-05-07T16:56:31.585Z,25.93
2018-05-07T16:58:59.808Z,25.23
2018-05-07T17:01:27.418Z,25.36
2018-05-07T17:03:55.004Z,25.39
2018-05-07T17:06:22.612Z,25.24
2018-05-07T17:08:50.203Z,25.17
2018-05-07T17:11:17.952Z,25.20
2018-05-07T17:13:45.551Z,24.69
2018-05-07T17:16:13.142Z,24.39
2018-05-07T17:18:40.750Z,23.82
2018-05-07T17:21:08.343Z,23.38
2018-05-07T17:23:36.003Z,23.37
2018-05-07T17:26:03.595Z,22.33
2018-05-07T17:28:31.634Z,22.67
2018-05-07T17:30:59.224Z,23.13
2018-05-07T17:33:26.845Z,24.18
2018-05-07T17:35:54.445Z,24.26
2018-05-07T17:38:22.069Z,24.54
2018-05-07T17:40:49.683Z,25.14
2018-05-07T17:43:17.277Z,25.25
2018-05-07T17:46:00.368Z,25.51
2018-05-07T17:48:39.719Z,25.54
2018-05-07T17:51:07.788Z,25.90
2018-05-07T17:53:35.413Z,26.30
2018-05-07T17:56:03.673Z,25.98
2018-05-07T17:58:31.310Z,26.56
2018-05-07T18:00:58.917Z,26.69
2018-05-07T18:03:26.538Z,26.93
2018-05-07T18:05:54.122Z,27.42
2018-05-07T18:08:21.918Z,27.61
2018-05-07T18:10:49.580Z,28.01
2018-05-07T18:13:17.131Z,27.70
2018-05-07T18:15:44.784Z,27.91
2018-05-07T18:18:12.379Z,28.18
2018-05-07T18:20:40.470Z,28.50
2018-05-07T18:23:08.060Z,28.62
2018-05-07T18:25:35.651Z,28.88
2018-05-07T18:28:03.254Z,29.00
2018-05-07T18:30:31.050Z,29.13
2018-05-07T18:32:58.500Z,29.61
2018-05-07T18:35:26.091Z,29.58
2018-05-07T18:37:53.898Z,29.98
2018-05-07T18:40:21.547Z,30.04
2018-05-07T18:42:49.139Z,30.47
2018-05-07T18:45:16.884Z,30.44
2018-05-07T18:47:44.473Z,30.79
2018-05-07T18:50:12.099Z,31.49
2018-05-07T18:52:39.697Z,31.15
2018-05-07T18:55:07.505Z,31.78
2018-05-07T18:57:35.102Z,31.54
2018-05-07T19:00:02.702Z,31.79
2018-05-07T19:02:30.384Z,31.99
2018-05-07T19:04:57.976Z,31.90
2018-05-07T19:07:25.595Z,32.20
2018-05-07T19:09:53.183Z,32.34
2018-05-07T19:12:20.966Z,32.21
2018-05-07T19:14:48.552Z,32.43
2018-05-07T19:17:16.145Z,32.75
2018-05-07T19:19:43.783Z,32.98
2018-05-07T19:22:11.385Z,32.94
2018-05-07T19:24:39.379Z,33.11
2018-05-07T19:27:06.970Z,33.06
2018-05-07T19:29:34.567Z,32.95
2018-05-07T19:32:02.196Z,33.55
2018-05-07T19:34:29.795Z,33.44
2018-05-07T19:36:57.694Z,33.66
2018-05-07T19:39:25.286Z,33.59
2018-05-07T19:41:52.875Z,33.99
2018-05-07T19:44:20.494Z,33.78
2018-05-07T19:46:48.099Z,34.01
2018-05-07T19:49:15.735Z,33.87
2018-05-07T19:51:43.324Z,33.81
2018-05-07T19:54:11.053Z,34.13
2018-05-07T19:56:38.651Z,34.25
2018-05-07T19:59:06.428Z,34.27
2018-05-07T20:01:34.041Z,34.36
2018-05-07T20:04:01.664Z,34.47
2018-05-07T20:06:29.274Z,34.44
2018-05-07T20:08:56.858Z,34.76
2018-05-07T20:11:24.671Z,34.82
2018-05-07T20:13:52.269Z,34.99
2018-05-07T20:16:19.858Z,35.21
2018-05-07T20:18:47.474Z,35.22
2018-05-07T20:21:15.063Z,35.27
2018-05-07T20:23:42.679Z,35.25
2018-05-07T20:26:10.290Z,35.28
2018-05-07T20:28:38.102Z,35.24
2018-05-07T20:31:05.688Z,35.14
2018-05-07T20:33:33.290Z,35.24
2018-05-07T20:36:00.911Z,35.22
2018-05-07T20:38:28.504Z,35.21
2018-05-07T20:40:56.114Z,35.23
2018-05-07T20:43:23.707Z,35.07
2018-05-07T20:45:51.737Z,35.29
2018-05-07T20:48:19.346Z,35.35
2018-05-07T20:50:46.934Z,35.47
2018-05-07T20:53:14.564Z,35.39
2018-05-07T20:55:42.163Z,35.35
2018-05-07T20:58:09.774Z,35.43
2018-05-07T21:00:38.203Z,35.47
2018-05-07T21:03:05.840Z,35.02
2018-05-07T21:05:33.426Z,35.34
2018-05-07T21:08:01.168Z,35.35
2018-05-07T21:10:28.896Z,35.04
2018-05-07T21:12:56.675Z,35.33
2018-05-07T21:15:24.297Z,34.79
2018-05-07T21:17:51.896Z,34.94
2018-05-07T21:20:19.519Z,34.97
2018-05-07T21:22:47.127Z,35.10
2018-05-07T21:25:14.735Z,35.01
2018-05-07T21:27:42.352Z,35.21
2018-05-07T21:30:09.938Z,34.99
2018-05-07T21:32:37.585Z,34.91
2018-05-07T21:35:05.183Z,34.98
2018-05-07T21:37:33.061Z,35.33
2018-05-07T21:40:00.652Z,35.09
2018-05-07T21:42:28.239Z,35.31
2018-05-07T21:44:55.886Z,35.40
2018-05-07T21:47:23.503Z,35.17
2018-05-07T21:49:51.118Z,35.21
2018-05-07T21:52:18.715Z,35.28
2018-05-07T21:54:46.701Z,35.71
2018-05-07T21:57:14.293Z,35.27
2018-05-07T21:59:41.879Z,35.47
2018-05-07T22:02:09.505Z,35.33
2018-05-07T22:04:37.111Z,35.28
2018-05-07T22:07:04.729Z,35.33
2018-05-07T22:09:32.319Z,35.47
2018-05-07T22:11:59.940Z,35.78
2018-05-07T22:14:27.547Z,35.72
2018-05-07T22:16:55.156Z,35.92
2018-05-07T22:19:22.823Z,35.93
2018-05-07T22:21:50.413Z,36.36
2018-05-07T22:24:18.028Z,36.37
2018-05-07T22:26:45.615Z,36.50
2018-05-07T22:29:13.241Z,36.45
2018-05-07T22:31:40.838Z,36.30
2018-05-07T22:34:08.426Z,36.44
2018-05-07T22:36:36.038Z,36.38
2018-05-07T22:39:03.697Z,36.50
2018-05-07T22:41:31.285Z,36.75
2018-05-07T22:43:58.883Z,36.79
2018-05-07T22:46:26.689Z,36.79
2018-05-07T22:48:54.283Z,36.89
2018-05-07T22:51:21.890Z,37.30
2018-05-07T22:53:49.517Z,37.40
2018-05-07T22:56:17.103Z,37.36
2018-05-07T22:58:44.710Z,37.42
2018-05-07T23:01:12.298Z,37.53
2018-05-07T23:03:40.419Z,37.87
2018-05-07T23:06:07.966Z,37.89
2018-05-07T23:08:35.560Z,37.74
2018-05-07T23:11:03.188Z,38.00
2018-05-07T23:13:30.788Z,38.05
2018-05-07T23:15:58.638Z,38.13
2018-05-07T23:18:26.241Z,38.06
2018-05-07T23:20:53.841Z,38.30
2018-05-07T23:23:21.462Z,38.96
2018-05-07T23:25:49.066Z,38.54
2018-05-07T23:28:16.696Z,38.57
2018-05-07T23:30:44.285Z,38.72
2018-05-07T23:33:11.909Z,38.89
2018-05-07T23:35:39.505Z,39.33
2018-05-07T23:38:07.265Z,39.18
2018-05-07T23:40:34.860Z,39.35
2018-05-07T23:43:02.446Z,39.15
2018-05-07T23:45:30.060Z,39.33
2018-05-07T23:47:57.665Z,39.18
2018-05-07T23:50:25.274Z,39.28
2018-05-07T23:52:52.868Z,39.55
2018-05-07T23:55:20.510Z,39.65
2018-05-07T23:57:48.105Z,39.65
